Time;durP1;ratioP1;P1;durP2;ratioP2;P2;SDS_P1;SDS_P2;PMS_P1;PMS_P2;Temp;Humidity;BMP_temperature;BMP_pressure;BME280_temperature;BME280_humidity;BME280_pressure;Samples;Min_cycle;Max_cycle;Signal;HPM_P1;HPM_P2
2022/11/13 00:01:18;;;;;;;27.20;14.88;;;4.70;99.90;;;;;;5065298;28;20102;-65
2022/11/13 00:03:44;;;;;;;45.80;38.85;;;4.60;99.90;;;;;;5062247;28;20669;-64
2022/11/13 00:06:11;;;;;;;58.28;43.65;;;4.70;99.90;;;;;;5064760;28;20099;-65
2022/11/13 00:08:36;;;;;;;50.38;41.78;;;4.80;99.90;;;;;;5062733;28;20485;-65
2022/11/13 00:11:06;;;;;;;28.15;14.43;;;4.90;99.90;;;;;;5065896;28;20048;-65
2022/11/13 00:13:33;;;;;;;22.35;13.93;;;4.80;99.90;;;;;;5064457;28;20052;-65
2022/11/13 00:16:01;;;;;;;22.52;13.20;;;5.00;99.90;;;;;;5065180;28;20042;-65
2022/11/13 00:18:28;;;;;;;52.97;41.08;;;4.80;99.90;;;;;;5063385;28;20044;-65
2022/11/13 00:20:55;;;;;;;63.03;40.07;;;4.80;99.90;;;;;;5062448;28;20052;-65
2022/11/13 00:23:22;;;;;;;34.85;15.98;;;4.90;99.90;;;;;;5097543;28;20056;-65
2022/11/13 00:25:48;;;;;;;47.05;38.35;;;4.90;99.90;;;;;;5063335;28;20452;-65
2022/11/13 00:28:14;;;;;;;15.07;12.00;;;4.80;99.90;;;;;;5065522;28;20086;-65
2022/11/13 00:30:40;;;;;;;48.53;38.45;;;4.90;99.90;;;;;;5064514;28;20040;-65
2022/11/13 00:33:06;;;;;;;26.05;13.55;;;4.80;99.90;;;;;;5065419;28;20071;-65
2022/11/13 00:35:32;;;;;;;22.85;12.65;;;4.80;99.90;;;;;;5064411;28;20102;-65
2022/11/13 00:38:01;;;;;;;15.60;12.70;;;4.80;99.90;;;;;;5064266;28;20055;-65
2022/11/13 00:40:27;;;;;;;44.47;37.58;;;4.80;99.90;;;;;;5064737;28;20048;-65
2022/11/13 00:42:52;;;;;;;32.15;16.38;;;4.80;99.90;;;;;;5064482;28;20449;-65
2022/11/13 00:45:18;;;;;;;56.65;43.95;;;4.80;99.90;;;;;;5064610;28;20032;-65
2022/11/13 00:47:43;;;;;;;63.22;47.13;;;4.80;99.90;;;;;;5064806;28;20141;-65
2022/11/13 00:50:09;;;;;;;27.52;18.83;;;4.80;99.90;;;;;;5064260;28;20051;-65
2022/11/13 00:52:35;;;;;;;37.22;18.55;;;4.90;99.90;;;;;;5065824;28;20049;-65
2022/11/13 00:55:01;;;;;;;68.78;51.78;;;4.90;99.90;;;;;;5067090;28;20036;-65
2022/11/13 00:57:26;;;;;;;44.72;18.23;;;4.80;99.90;;;;;;5068964;28;20040;-65
2022/11/13 00:59:52;;;;;;;79.20;59.20;;;4.90;99.90;;;;;;5066653;28;20040;-65
2022/11/13 01:02:18;;;;;;;38.90;21.63;;;5.00;99.90;;;;;;5067886;28;20047;-65
2022/11/13 01:04:43;;;;;;;84.63;59.38;;;5.00;99.90;;;;;;5065876;28;20059;-65
2022/11/13 01:07:09;;;;;;;30.63;19.25;;;5.00;99.90;;;;;;5066562;28;20037;-65
2022/11/13 01:09:35;;;;;;;36.95;22.52;;;5.10;99.90;;;;;;5064762;28;20202;-65
2022/11/13 01:12:00;;;;;;;82.57;53.83;;;5.10;99.90;;;;;;5067522;28;20115;-65
2022/11/13 01:14:26;;;;;;;82.25;58.33;;;5.10;99.90;;;;;;5064694;28;20052;-65
2022/11/13 01:16:51;;;;;;;48.60;23.67;;;5.10;99.90;;;;;;5069598;28;20042;-65
2022/11/13 01:19:17;;;;;;;44.65;19.92;;;5.10;99.90;;;;;;5067996;28;20123;-65
2022/11/13 01:21:43;;;;;;;39.15;19.75;;;5.10;99.90;;;;;;5067396;28;21328;-65
2022/11/13 01:24:08;;;;;;;71.35;54.65;;;5.00;99.90;;;;;;5064973;28;20056;-65
2022/11/13 01:26:34;;;;;;;34.03;18.98;;;5.10;99.90;;;;;;5065262;28;20051;-65
2022/11/13 01:29:00;;;;;;;28.70;15.15;;;5.10;99.90;;;;;;5064787;28;20051;-65
2022/11/13 01:31:28;;;;;;;39.13;17.85;;;5.20;99.90;;;;;;5067058;28;20041;-65
2022/11/13 01:33:54;;;;;;;;;;;5.10;99.90;;;;;;5063627;28;20049;-65
2022/11/13 01:36:23;;;;;;;71.05;51.40;;;5.10;99.90;;;;;;5065179;28;19936;-65
2022/11/13 01:38:49;;;;;;;;;;;5.10;99.90;;;;;;5064052;28;20041;-66
2022/11/13 01:41:18;;;;;;;68.93;48.65;;;5.10;99.90;;;;;;5065318;28;19929;-65
2022/11/13 01:43:44;;;;;;;72.78;52.53;;;5.10;99.90;;;;;;5064335;28;20048;-65
2022/11/13 01:46:21;;;;;;;76.85;51.92;;;5.10;99.90;;;;;;5064058;28;20098;-65
2022/11/13 01:49:10;;;;;;;46.95;18.88;;;5.30;99.90;;;;;;5063821;28;20040;-66
2022/11/13 01:51:40;;;;;;;78.25;52.45;;;5.10;99.90;;;;;;5042632;28;20746;-66
2022/11/13 01:54:14;;;;;;;41.80;20.80;;;5.10;99.90;;;;;;5064363;28;20040;-65
2022/11/13 01:56:40;;;;;;;76.10;52.15;;;5.10;99.90;;;;;;5062789;28;20047;-65
2022/11/13 01:59:10;;;;;;;44.35;20.05;;;5.20;99.90;;;;;;5063317;28;20732;-65
2022/11/13 02:01:36;;;;;;;69.45;51.83;;;5.20;99.90;;;;;;5062490;28;20198;-65
2022/11/13 02:04:02;;;;;;;43.33;19.30;;;5.20;99.90;;;;;;5065141;28;20150;-65
2022/11/13 02:06:38;;;;;;;74.70;54.28;;;5.20;99.90;;;;;;5063455;28;20036;-65
2022/11/13 02:09:05;;;;;;;46.60;20.90;;;5.30;99.90;;;;;;5063183;28;21685;-65
2022/11/13 02:11:31;;;;;;;25.02;15.13;;;5.20;99.90;;;;;;5061374;28;20036;-65
2022/11/13 02:13:57;;;;;;;76.18;52.63;;;5.20;99.90;;;;;;5067997;28;20051;-65
2022/11/13 02:16:23;;;;;;;64.03;49.42;;;5.20;99.90;;;;;;5068204;28;20623;-65
2022/11/13 02:18:49;;;;;;;64.53;49.78;;;5.30;99.90;;;;;;5064774;28;20040;-65
2022/11/13 02:21:27;;;;;;;59.97;46.75;;;5.30;99.90;;;;;;5059432;28;20057;-65
2022/11/13 02:24:17;;;;;;;29.00;15.18;;;5.00;99.90;;;;;;5063898;28;20128;-66
2022/11/13 02:26:44;;;;;;;31.58;15.10;;;5.20;99.90;;;;;;5064733;28;20044;-66
2022/11/13 02:29:09;;;;;;;59.03;43.75;;;5.20;99.90;;;;;;5068899;28;20429;-65
2022/11/13 02:31:35;;;;;;;29.83;18.48;;;5.20;99.90;;;;;;5063298;28;20468;-65
2022/11/13 02:34:01;;;;;;;32.28;17.35;;;5.10;99.90;;;;;;5064331;28;20045;-65
2022/11/13 02:36:28;;;;;;;70.95;47.50;;;5.10;99.90;;;;;;5065480;28;20048;-65
2022/11/13 02:38:57;;;;;;;39.17;18.42;;;5.10;99.90;;;;;;5061961;28;20043;-65
2022/11/13 02:41:23;;;;;;;31.73;14.88;;;5.20;99.90;;;;;;5064353;28;20044;-65
2022/11/13 02:43:49;;;;;;;68.10;48.63;;;5.00;99.90;;;;;;5061746;28;20063;-65
2022/11/13 02:46:14;;;;;;;39.20;17.40;;;5.00;99.90;;;;;;5065246;28;20048;-66
2022/11/13 02:48:40;;;;;;;34.67;16.73;;;5.00;99.90;;;;;;5062617;28;20497;-65
2022/11/13 02:51:06;;;;;;;30.52;16.52;;;5.00;99.90;;;;;;5060357;28;20480;-65
2022/11/13 02:53:32;;;;;;;35.67;15.50;;;5.00;99.90;;;;;;5064659;28;20040;-65
2022/11/13 02:55:57;;;;;;;65.93;48.55;;;5.00;99.90;;;;;;5064582;28;20040;-65
2022/11/13 02:58:23;;;;;;;27.77;15.77;;;5.00;99.90;;;;;;5064306;28;20047;-65
2022/11/13 03:00:49;;;;;;;36.88;16.75;;;5.00;99.90;;;;;;5063431;28;20043;-65
2022/11/13 03:03:14;;;;;;;71.68;50.22;;;5.00;99.90;;;;;;5064920;28;20489;-65
2022/11/13 03:05:40;;;;;;;40.30;20.17;;;5.00;99.90;;;;;;5065313;28;20417;-65
2022/11/13 03:08:06;;;;;;;68.97;50.33;;;5.00;99.90;;;;;;5063071;28;20050;-65
2022/11/13 03:10:31;;;;;;;72.05;48.15;;;5.00;99.90;;;;;;5064585;28;20142;-65
2022/11/13 03:12:57;;;;;;;44.72;21.95;;;5.00;99.90;;;;;;5062577;28;20063;-66
2022/11/13 03:15:23;;;;;;;43.05;18.88;;;5.00;99.90;;;;;;5062387;28;20044;-65
2022/11/13 03:17:49;;;;;;;37.13;20.80;;;5.00;99.90;;;;;;5062049;28;20377;-66
2022/11/13 03:20:15;;;;;;;32.50;13.75;;;4.90;99.90;;;;;;5063073;28;20111;-66
2022/11/13 03:22:40;;;;;;;28.92;13.45;;;4.90;99.90;;;;;;5064073;28;20053;-65
2022/11/13 03:25:07;;;;;;;74.53;52.15;;;4.80;99.90;;;;;;5059776;28;20501;-65
2022/11/13 03:27:32;;;;;;;40.50;17.63;;;4.80;99.90;;;;;;5065650;28;20045;-65
2022/11/13 03:29:58;;;;;;;47.17;18.38;;;4.90;99.90;;;;;;5062389;28;20036;-65
2022/11/13 03:32:24;;;;;;;68.43;48.65;;;4.90;99.90;;;;;;5064993;28;20032;-66
2022/11/13 03:34:50;;;;;;;39.10;15.40;;;4.90;99.90;;;;;;5060739;28;20575;-66
2022/11/13 03:37:16;;;;;;;37.40;17.23;;;4.90;99.90;;;;;;5061750;28;20477;-66
2022/11/13 03:39:41;;;;;;;32.58;16.42;;;4.80;99.90;;;;;;5066027;28;20041;-65
2022/11/13 03:42:09;;;;;;;27.80;14.52;;;4.80;99.90;;;;;;5067751;28;20075;-65
2022/11/13 03:44:35;;;;;;;56.80;43.90;;;4.80;99.90;;;;;;5064337;28;20052;-65
2022/11/13 03:47:00;;;;;;;31.85;17.77;;;4.80;99.90;;;;;;5063261;28;20289;-65
2022/11/13 03:49:26;;;;;;;44.40;16.80;;;4.80;99.90;;;;;;5062831;28;20056;-66
2022/11/13 03:51:51;;;;;;;27.23;13.75;;;4.70;99.90;;;;;;5063737;28;20379;-66
2022/11/13 03:54:17;;;;;;;51.83;39.28;;;4.70;99.90;;;;;;5066266;28;20033;-66
2022/11/13 03:56:43;;;;;;;30.15;16.27;;;4.60;99.90;;;;;;5065087;28;20086;-65
2022/11/13 03:59:08;;;;;;;57.10;38.33;;;4.70;99.90;;;;;;5066197;28;20508;-65
2022/11/13 04:01:34;;;;;;;25.90;13.95;;;4.70;99.90;;;;;;5066182;28;20053;-65
2022/11/13 04:04:00;;;;;;;27.02;13.60;;;4.70;99.90;;;;;;5067189;28;20037;-65
2022/11/13 04:06:25;;;;;;;25.98;13.35;;;4.60;99.90;;;;;;5064149;28;20048;-66
2022/11/13 04:08:51;;;;;;;43.67;34.92;;;4.50;99.90;;;;;;5070712;28;20047;-65
2022/11/13 04:11:17;;;;;;;27.73;16.08;;;4.50;99.90;;;;;;5067847;28;20106;-66
2022/11/13 04:13:43;;;;;;;48.60;36.38;;;4.40;99.90;;;;;;5073189;28;20041;-65
2022/11/13 04:16:08;;;;;;;40.17;33.50;;;4.50;99.90;;;;;;5065980;28;20032;-65
2022/11/13 04:18:34;;;;;;;52.53;37.15;;;4.50;99.90;;;;;;5064944;28;20048;-66
2022/11/13 04:21:05;;;;;;;28.95;14.88;;;4.40;99.90;;;;;;5066215;28;20044;-66
2022/11/13 04:23:30;;;;;;;30.88;15.13;;;4.40;99.90;;;;;;5063444;28;20059;-65
2022/11/13 04:25:56;;;;;;;28.50;15.82;;;4.40;99.90;;;;;;5073476;28;20044;-66
2022/11/13 04:28:22;;;;;;;25.90;14.23;;;4.20;99.90;;;;;;5065193;28;20086;-66
2022/11/13 04:30:48;;;;;;;40.97;34.47;;;4.30;99.90;;;;;;5064631;28;20044;-65
2022/11/13 04:33:14;;;;;;;22.45;13.13;;;4.30;99.90;;;;;;5059219;28;20043;-65
2022/11/13 04:35:44;;;;;;;42.80;33.88;;;4.30;99.90;;;;;;5079028;28;20048;-65
2022/11/13 04:38:11;;;;;;;44.60;35.45;;;4.20;99.90;;;;;;5062411;28;20056;-65
2022/11/13 04:40:38;;;;;;;27.85;13.82;;;4.30;99.90;;;;;;5064825;28;20155;-65
2022/11/13 04:43:04;;;;;;;27.92;16.23;;;4.30;99.90;;;;;;5069478;28;20041;-65
2022/11/13 04:45:29;;;;;;;20.30;12.23;;;4.20;99.90;;;;;;5064958;28;20047;-66
2022/11/13 04:47:55;;;;;;;19.80;11.45;;;4.20;99.90;;;;;;5057629;28;20045;-65
2022/11/13 04:50:22;;;;;;;32.63;14.60;;;4.20;99.90;;;;;;5068263;28;20120;-65
2022/11/13 04:52:47;;;;;;;22.08;12.23;;;4.20;99.90;;;;;;5065949;28;20094;-65
2022/11/13 04:55:13;;;;;;;48.17;36.55;;;4.10;99.90;;;;;;5058534;28;20443;-65
2022/11/13 04:57:39;;;;;;;24.15;14.90;;;4.20;99.90;;;;;;5067076;28;20068;-65
2022/11/13 05:00:07;;;;;;;25.50;12.68;;;4.10;99.90;;;;;;5064687;28;20046;-66
2022/11/13 05:02:33;;;;;;;23.92;12.18;;;4.10;99.90;;;;;;5067103;28;20049;-66
2022/11/13 05:04:58;;;;;;;50.50;36.28;;;4.10;99.90;;;;;;5065293;28;20040;-66
2022/11/13 05:07:25;;;;;;;27.35;14.27;;;4.10;99.90;;;;;;5065170;28;20036;-66
2022/11/13 05:09:51;;;;;;;22.23;12.45;;;4.10;99.90;;;;;;5064093;28;20158;-65
2022/11/13 05:12:16;;;;;;;29.60;12.60;;;4.00;99.90;;;;;;5064129;28;20910;-65
2022/11/13 05:14:42;;;;;;;41.42;34.83;;;4.10;99.90;;;;;;5063789;28;20048;-66
2022/11/13 05:17:09;;;;;;;27.88;13.82;;;3.90;99.90;;;;;;5060751;28;20047;-65
2022/11/13 05:19:35;;;;;;;45.22;36.90;;;3.90;99.90;;;;;;5062121;28;20056;-66
2022/11/13 05:22:01;;;;;;;32.22;15.85;;;4.50;99.90;;;;;;5064781;28;20044;-66
2022/11/13 05:24:27;;;;;;;20.73;11.90;;;4.00;99.90;;;;;;5065082;28;20573;-65
2022/11/13 05:26:53;;;;;;;24.33;15.15;;;3.90;99.90;;;;;;5064006;28;20540;-66
2022/11/13 05:29:19;;;;;;;31.95;15.57;;;3.90;99.90;;;;;;5064606;28;20037;-65
2022/11/13 05:31:45;;;;;;;52.15;36.53;;;3.90;99.90;;;;;;5063979;28;20057;-65
2022/11/13 05:34:10;;;;;;;30.23;13.70;;;3.90;99.90;;;;;;5064771;28;20040;-65
2022/11/13 05:36:36;;;;;;;29.67;15.57;;;3.90;99.90;;;;;;5062335;28;20101;-65
2022/11/13 05:39:03;;;;;;;29.10;17.83;;;3.90;99.90;;;;;;5061024;28;20032;-65
2022/11/13 05:41:29;;;;;;;61.22;41.40;;;3.90;99.90;;;;;;5067035;28;21636;-65
2022/11/13 05:43:54;;;;;;;50.03;38.17;;;3.90;99.90;;;;;;5061247;28;20047;-65
2022/11/13 05:46:25;;;;;;;31.08;16.90;;;4.00;99.90;;;;;;5068989;28;20075;-65
2022/11/13 05:48:53;;;;;;;28.25;15.18;;;3.90;99.90;;;;;;5067024;28;20059;-65
2022/11/13 05:51:21;;;;;;;21.52;13.23;;;3.80;99.90;;;;;;5065282;28;20171;-66
2022/11/13 05:53:48;;;;;;;21.08;13.07;;;3.80;99.90;;;;;;5067686;28;20123;-66
2022/11/13 05:56:25;;;;;;;58.97;43.65;;;3.90;99.90;;;;;;5067111;28;20112;-65
2022/11/13 05:58:52;;;;;;;18.40;11.32;;;3.90;99.90;;;;;;5057919;28;20032;-65
2022/11/13 06:01:26;;;;;;;26.65;14.93;;;4.00;99.90;;;;;;5066770;28;20493;-65
2022/11/13 06:03:53;;;;;;;50.25;35.45;;;4.00;99.90;;;;;;5065869;28;20052;-65
2022/11/13 06:06:20;;;;;;;22.98;13.38;;;4.00;99.90;;;;;;5064267;28;20101;-65
2022/11/13 06:08:48;;;;;;;55.47;37.57;;;4.00;99.90;;;;;;5064253;28;20048;-65
2022/11/13 06:11:16;;;;;;;45.60;13.43;;;3.90;99.90;;;;;;5069358;28;20085;-66
2022/11/13 06:13:43;;;;;;;38.03;31.67;;;4.00;99.90;;;;;;5067576;28;20516;-66
2022/11/13 06:16:19;;;;;;;29.25;15.10;;;4.00;99.90;;;;;;5061436;28;20069;-66
2022/11/13 06:18:47;;;;;;;18.35;12.13;;;4.00;99.90;;;;;;5063976;28;20047;-65
2022/11/13 06:21:24;;;;;;;26.80;13.65;;;3.90;99.90;;;;;;5064387;28;20076;-65
2022/11/13 06:23:49;;;;;;;23.02;12.52;;;3.90;99.90;;;;;;5067800;28;20048;-65
2022/11/13 06:26:21;;;;;;;25.88;12.43;;;3.80;99.90;;;;;;5068792;28;20063;-65
2022/11/13 06:28:47;;;;;;;22.85;13.20;;;3.90;99.90;;;;;;5060185;28;20036;-65
2022/11/13 06:31:19;;;;;;;43.78;34.30;;;3.90;99.90;;;;;;5067567;28;20043;-65
2022/11/13 06:33:45;;;;;;;38.45;31.02;;;3.80;99.90;;;;;;5068305;28;20040;-65
2022/11/13 06:36:26;;;;;;;39.35;32.58;;;3.80;99.90;;;;;;5068217;28;20390;-65
2022/11/13 06:38:52;;;;;;;22.35;13.23;;;4.00;99.90;;;;;;5065277;28;20064;-65
2022/11/13 06:41:22;;;;;;;19.75;12.48;;;3.80;99.90;;;;;;5063073;28;20071;-65
2022/11/13 06:43:48;;;;;;;19.95;11.70;;;3.80;99.90;;;;;;5065962;28;20440;-65
2022/11/13 06:46:17;;;;;;;20.67;11.80;;;3.80;99.90;;;;;;5068230;28;20033;-66
2022/11/13 06:48:44;;;;;;;;;;;3.80;99.90;;;;;;5068292;28;20050;-65
2022/11/13 06:51:32;;;;;;;16.88;10.52;;;3.70;99.90;;;;;;5055067;28;19928;-64
2022/11/13 06:53:58;;;;;;;;;;;3.70;99.90;;;;;;5066221;28;20710;-65
2022/11/13 06:56:24;;;;;;;49.45;37.53;;;3.70;99.90;;;;;;5066325;28;19920;-65
2022/11/13 06:58:49;;;;;;;24.05;13.55;;;3.70;99.90;;;;;;5065425;28;20040;-65
2022/11/13 07:01:21;;;;;;;53.38;38.70;;;3.70;99.90;;;;;;5066308;28;20035;-65
2022/11/13 07:03:47;;;;;;;26.52;13.68;;;3.70;99.90;;;;;;5065341;28;20676;-66
2022/11/13 07:06:17;;;;;;;21.70;13.90;;;3.60;99.90;;;;;;5066018;28;20048;-64
2022/11/13 07:08:43;;;;;;;53.65;40.22;;;3.70;99.90;;;;;;5066807;28;20690;-64
2022/11/13 07:11:11;;;;;;;50.33;37.10;;;3.80;99.90;;;;;;5067767;28;20043;-65
2022/11/13 07:13:37;;;;;;;25.90;12.90;;;3.80;99.90;;;;;;5065366;28;20147;-65
2022/11/13 07:16:05;;;;;;;24.42;14.23;;;3.80;99.90;;;;;;5066581;28;20386;-65
2022/11/13 07:18:31;;;;;;;24.50;15.15;;;3.70;99.90;;;;;;5064378;28;20055;-65
2022/11/13 07:21:02;;;;;;;64.45;45.33;;;3.80;99.90;;;;;;5062951;28;20053;-65
2022/11/13 07:23:27;;;;;;;28.60;15.65;;;3.80;99.90;;;;;;5066019;28;20584;-65
2022/11/13 07:25:54;;;;;;;57.97;42.72;;;3.80;99.90;;;;;;5065550;28;20115;-65
2022/11/13 07:28:21;;;;;;;20.38;12.23;;;3.70;99.90;;;;;;5064188;28;20051;-65
2022/11/13 07:30:46;;;;;;;46.25;37.05;;;3.80;99.90;;;;;;5067806;28;20072;-65
2022/11/13 07:33:12;;;;;;;28.35;13.77;;;3.80;99.90;;;;;;5065826;28;20505;-65
2022/11/13 07:35:38;;;;;;;21.85;13.18;;;3.70;99.90;;;;;;5067704;28;20115;-66
2022/11/13 07:38:05;;;;;;;50.35;39.08;;;3.70;99.90;;;;;;5067142;28;20118;-65
2022/11/13 07:40:31;;;;;;;68.40;44.47;;;3.70;99.90;;;;;;5067379;28;20055;-65
2022/11/13 07:43:00;;;;;;;16.90;11.65;;;3.70;99.90;;;;;;5058833;28;20037;-65
2022/11/13 07:45:27;;;;;;;23.13;14.00;;;3.60;99.90;;;;;;5064056;28;20613;-65
2022/11/13 07:48:00;;;;;;;23.13;12.00;;;3.70;99.90;;;;;;5060996;28;20059;-65
2022/11/13 07:50:28;;;;;;;53.03;37.92;;;3.60;99.90;;;;;;5064891;28;20698;-66
2022/11/13 07:52:58;;;;;;;66.53;45.75;;;3.70;99.90;;;;;;5058685;28;20068;-65
2022/11/13 07:55:23;;;;;;;29.25;14.63;;;3.80;99.90;;;;;;5061392;28;20080;-65
2022/11/13 07:57:49;;;;;;;66.90;46.72;;;3.90;99.90;;;;;;5062496;28;20506;-66
2022/11/13 08:00:15;;;;;;;22.40;15.15;;;3.90;99.90;;;;;;5089757;28;20093;-65
2022/11/13 08:02:41;;;;;;;24.33;12.27;;;4.00;99.90;;;;;;5061169;28;20097;-65
2022/11/13 08:05:07;;;;;;;29.10;15.45;;;4.10;99.90;;;;;;5056898;28;20044;-65
2022/11/13 08:07:33;;;;;;;39.20;15.32;;;4.10;99.90;;;;;;5063163;28;20146;-65
2022/11/13 08:09:58;;;;;;;73.97;54.83;;;4.10;99.90;;;;;;5058840;28;20047;-66
2022/11/13 08:12:24;;;;;;;31.23;15.57;;;4.20;99.90;;;;;;5065941;28;20474;-66
2022/11/13 08:14:50;;;;;;;27.80;15.82;;;4.30;99.90;;;;;;5067257;28;20037;-66
2022/11/13 08:17:15;;;;;;;31.08;13.02;;;4.30;99.90;;;;;;5066568;28;20045;-66
2022/11/13 08:19:41;;;;;;;38.30;14.20;;;4.30;99.90;;;;;;5065248;28;20040;-66
2022/11/13 08:22:06;;;;;;;27.05;15.13;;;4.50;99.90;;;;;;5062521;28;20044;-66
2022/11/13 08:24:33;;;;;;;33.17;20.55;;;4.50;99.90;;;;;;5065277;28;20041;-66
2022/11/13 08:26:59;;;;;;;29.52;14.63;;;4.50;99.90;;;;;;5066099;28;20497;-66
2022/11/13 08:29:24;;;;;;;25.45;14.18;;;4.50;99.90;;;;;;5066251;28;20124;-65
2022/11/13 08:31:50;;;;;;;22.70;14.73;;;4.50;99.90;;;;;;5062500;28;20047;-65
2022/11/13 08:34:16;;;;;;;72.85;53.25;;;4.60;99.90;;;;;;5061986;28;20157;-66
2022/11/13 08:36:41;;;;;;;81.38;54.47;;;4.60;99.90;;;;;;5062212;28;20535;-66
2022/11/13 08:39:08;;;;;;;36.30;19.67;;;4.70;99.90;;;;;;5064436;28;20054;-66
2022/11/13 08:41:34;;;;;;;35.38;16.63;;;4.70;99.90;;;;;;5065903;28;20047;-66
2022/11/13 08:43:59;;;;;;;22.13;12.73;;;4.80;99.90;;;;;;5065906;28;20037;-66
2022/11/13 08:46:25;;;;;;;74.85;53.10;;;4.90;99.90;;;;;;5056260;28;20545;-66
2022/11/13 08:48:51;;;;;;;29.48;14.02;;;5.00;99.90;;;;;;5055683;28;20044;-66
2022/11/13 08:51:17;;;;;;;87.53;54.28;;;5.10;99.90;;;;;;5063184;28;20047;-66
2022/11/13 08:53:42;;;;;;;32.47;17.40;;;5.00;99.90;;;;;;5059715;28;20915;-66
2022/11/13 08:56:08;;;;;;;30.88;14.68;;;5.10;99.90;;;;;;5064985;28;20158;-66
2022/11/13 08:58:34;;;;;;;74.20;54.55;;;5.20;99.90;;;;;;5066633;28;20045;-66
2022/11/13 09:01:00;;;;;;;72.50;54.15;;;5.20;99.90;;;;;;5063133;28;20049;-66
2022/11/13 09:03:26;;;;;;;75.88;55.28;;;5.30;99.90;;;;;;5063062;28;20078;-66
2022/11/13 09:05:52;;;;;;;28.27;17.95;;;5.40;99.90;;;;;;5063947;28;20040;-66
2022/11/13 09:08:17;;;;;;;37.47;18.48;;;5.50;99.90;;;;;;5060968;28;20044;-66
2022/11/13 09:10:43;;;;;;;32.60;17.30;;;5.50;99.90;;;;;;5058484;28;20036;-66
2022/11/13 09:13:10;;;;;;;65.00;50.40;;;5.50;99.90;;;;;;5061291;28;20036;-67
2022/11/13 09:15:37;;;;;;;67.30;50.65;;;5.70;99.90;;;;;;5062002;28;20059;-66
2022/11/13 09:18:03;;;;;;;37.90;18.77;;;5.80;99.90;;;;;;5066718;28;20094;-67
2022/11/13 09:20:30;;;;;;;25.83;16.15;;;5.90;99.90;;;;;;5065665;28;20444;-66
2022/11/13 09:23:01;;;;;;;33.42;19.33;;;6.00;99.90;;;;;;5062826;28;20052;-66
2022/11/13 09:25:27;;;;;;;67.30;48.53;;;6.10;99.90;;;;;;5065005;28;20075;-66
2022/11/13 09:27:55;;;;;;;29.60;18.63;;;6.20;99.90;;;;;;5065130;28;20069;-67
2022/11/13 09:30:21;;;;;;;25.50;17.35;;;6.30;99.90;;;;;;5063102;28;20643;-66
2022/11/13 09:32:51;;;;;;;68.63;49.85;;;6.40;99.90;;;;;;5064883;28;20044;-66
2022/11/13 09:35:32;;;;;;;64.30;51.67;;;6.60;99.90;;;;;;5066651;28;20048;-66
2022/11/13 09:38:03;;;;;;;31.92;17.48;;;6.70;99.90;;;;;;5067337;28;20208;-66
2022/11/13 09:40:33;;;;;;;33.17;17.70;;;6.90;99.90;;;;;;5065049;28;20130;-66
2022/11/13 09:43:02;;;;;;;67.22;46.63;;;7.00;99.90;;;;;;5065240;28;20045;-66
2022/11/13 09:45:29;;;;;;;35.67;21.10;;;7.00;99.90;;;;;;5063594;28;20116;-66
2022/11/13 09:47:59;;;;;;;35.83;17.00;;;7.20;99.90;;;;;;5069912;28;20105;-66
2022/11/13 09:50:28;;;;;;;64.40;47.28;;;7.30;99.90;;;;;;5062581;28;20052;-66
2022/11/13 09:52:54;;;;;;;38.97;22.63;;;7.30;99.90;;;;;;5066482;28;20033;-67
2022/11/13 09:55:28;;;;;;;35.80;21.13;;;7.40;99.90;;;;;;5063395;28;20652;-66
2022/11/13 09:58:10;;;;;;;29.30;18.65;;;7.50;99.90;;;;;;5060272;28;20055;-66
2022/11/13 10:00:35;;;;;;;57.80;43.72;;;7.60;99.90;;;;;;5065715;28;20059;-66
2022/11/13 10:03:25;;;;;;;56.28;44.88;;;7.60;99.90;;;;;;5064255;28;20045;-66
2022/11/13 10:06:09;;;;;;;55.83;42.63;;;7.70;99.90;;;;;;5067480;28;20044;-66
2022/11/13 10:09:00;;;;;;;35.83;20.65;;;7.80;99.90;;;;;;5066425;28;20119;-66
2022/11/13 10:11:38;;;;;;;55.13;42.92;;;7.80;99.90;;;;;;5065888;28;20049;-66
2022/11/13 10:14:20;;;;;;;62.42;46.15;;;7.90;99.90;;;;;;5063753;28;20417;-66
2022/11/13 10:16:54;;;;;;;53.92;41.70;;;8.00;99.90;;;;;;5062549;28;20055;-66
2022/11/13 10:19:33;;;;;;;50.33;39.92;;;8.00;99.90;;;;;;5065716;28;20049;-67
2022/11/13 10:22:02;;;;;;;;;;;8.10;99.90;;;;;;5065219;28;20500;-67
2022/11/13 10:24:41;;;;;;;50.72;39.47;;;8.20;99.90;;;;;;5065282;28;19920;-67
2022/11/13 10:27:11;;;;;;;42.92;36.08;;;8.30;99.90;;;;;;5063344;28;20074;-66
2022/11/13 10:29:38;;;;;;;46.90;37.65;;;8.50;99.90;;;;;;5094918;28;20053;-66
2022/11/13 10:32:18;;;;;;;51.60;35.38;;;8.60;99.90;;;;;;5065851;28;20038;-66
2022/11/13 10:35:07;;;;;;;53.55;38.42;;;8.80;99.90;;;;;;5061619;28;20046;-66
2022/11/13 10:37:59;;;;;;;35.50;18.35;;;9.50;99.90;;;;;;5050477;28;21406;-65
2022/11/13 10:40:26;;;;;;;27.45;14.93;;;9.00;99.90;;;;;;5062763;28;20047;-66
2022/11/13 10:42:52;;;;;;;42.00;34.85;;;9.10;99.90;;;;;;5062920;28;20036;-66
2022/11/13 10:45:19;;;;;;;27.38;15.70;;;9.20;99.90;;;;;;5063396;28;20043;-66
2022/11/13 10:47:48;;;;;;;42.17;34.83;;;9.40;99.90;;;;;;5060656;28;20498;-67
2022/11/13 10:50:29;;;;;;;41.97;34.80;;;9.50;99.90;;;;;;5057099;28;20440;-67
2022/11/13 10:52:56;;;;;;;24.98;14.95;;;9.60;99.90;;;;;;5061204;28;20141;-67
2022/11/13 10:55:28;;;;;;;47.25;36.35;;;9.70;99.90;;;;;;5063722;28;20055;-66
2022/11/13 10:57:56;;;;;;;44.42;33.85;;;9.70;99.90;;;;;;5065096;28;20083;-66
2022/11/13 11:00:43;;;;;;;29.20;16.55;;;9.80;99.90;;;;;;5062603;28;20053;-66
2022/11/13 11:03:29;;;;;;;33.25;17.15;;;9.90;99.90;;;;;;5068359;28;20496;-67
2022/11/13 11:06:00;;;;;;;46.47;32.22;;;10.00;99.90;;;;;;5064757;28;20052;-66
2022/11/13 11:08:34;;;;;;;48.42;33.65;;;10.00;99.90;;;;;;5066353;28;20547;-66
2022/11/13 11:13:50;;;;;;;40.10;30.85;;;10.20;99.90;;;;;;5068656;28;20087;-66
2022/11/13 11:16:21;;;;;;;37.78;31.30;;;10.30;99.90;;;;;;5067330;28;21661;-66
2022/11/13 11:18:59;;;;;;;38.15;32.33;;;10.40;99.90;;;;;;5067021;28;20040;-66
2022/11/13 11:21:29;;;;;;;37.60;30.80;;;10.50;99.90;;;;;;5067428;28;20052;-66
2022/11/13 11:24:15;;;;;;;37.95;30.65;;;10.50;99.90;;;;;;5065011;28;20440;-66
2022/11/13 11:26:51;;;;;;;43.10;32.42;;;10.60;99.90;;;;;;5068102;28;20607;-67
2022/11/13 11:29:29;;;;;;;43.80;32.58;;;10.70;99.90;;;;;;5068388;28;20040;-66
2022/11/13 11:32:08;;;;;;;41.13;32.22;;;10.80;99.90;;;;;;5067679;28;20044;-66
2022/11/13 11:34:43;;;;;;;38.97;30.65;;;10.90;99.90;;;;;;5068092;28;20045;-66
2022/11/13 11:37:18;;;;;;;43.05;30.10;;;11.00;99.90;;;;;;5066937;28;20072;-66
2022/11/13 11:40:03;;;;;;;36.63;29.88;;;11.00;99.90;;;;;;5055958;28;20098;-65
2022/11/13 11:42:44;;;;;;;38.65;29.77;;;11.20;99.90;;;;;;5061884;28;20048;-66
2022/11/13 11:45:32;;;;;;;33.92;29.33;;;11.20;99.90;;;;;;5061461;28;20082;-66
2022/11/13 11:48:00;;;;;;;34.70;29.95;;;11.30;99.90;;;;;;5066671;28;20440;-66
2022/11/13 11:50:51;;;;;;;36.03;29.48;;;11.30;99.90;;;;;;5067946;28;20059;-66
2022/11/13 11:53:30;;;;;;;38.75;30.08;;;11.40;99.90;;;;;;5066481;28;20080;-66
2022/11/13 11:56:19;;;;;;;35.25;29.63;;;11.40;99.90;;;;;;5068057;28;20045;-66
2022/11/13 11:59:04;;;;;;;33.38;28.63;;;11.40;99.90;;;;;;5064195;28;20579;-66
2022/11/13 12:01:58;;;;;;;37.28;29.67;;;11.50;99.90;;;;;;5056277;28;20652;-67
2022/11/13 12:04:40;;;;;;;35.03;28.17;;;11.50;99.90;;;;;;5063979;28;20420;-66
2022/11/13 12:07:23;;;;;;;37.72;30.77;;;11.50;99.90;;;;;;5070165;28;20054;-66
2022/11/13 12:10:08;;;;;;;35.67;29.23;;;11.50;99.90;;;;;;5064964;28;20097;-66
2022/11/13 12:13:02;;;;;;;39.50;30.35;;;11.60;99.90;;;;;;5047828;28;20041;-66
2022/11/13 12:15:39;;;;;;;39.03;30.08;;;11.60;99.90;;;;;;5053746;28;20409;-66
2022/11/13 12:18:18;;;;;;;41.60;30.90;;;11.80;99.90;;;;;;5067263;28;20837;-66
2022/11/13 12:21:07;;;;;;;37.60;30.30;;;11.80;99.90;;;;;;5062187;28;20060;-66
2022/11/13 12:23:47;;;;;;;35.38;28.40;;;11.90;99.90;;;;;;5063410;28;20048;-66
2022/11/13 12:26:36;;;;;;;40.15;29.92;;;11.80;99.90;;;;;;5066134;28;20769;-66
2022/11/13 12:29:18;;;;;;;41.20;28.33;;;11.90;99.90;;;;;;5064598;28;20045;-66
2022/11/13 12:32:05;;;;;;;41.88;31.05;;;12.00;99.90;;;;;;5065544;28;20079;-65
2022/11/13 12:34:46;;;;;;;39.23;29.27;;;12.00;99.90;;;;;;5066918;28;20057;-65
2022/11/13 12:37:37;;;;;;;41.35;28.33;;;12.10;99.90;;;;;;5066402;28;20498;-65
2022/11/13 12:40:14;;;;;;;34.38;28.48;;;12.10;99.90;;;;;;5065524;28;20041;-65
2022/11/13 12:42:47;;;;;;;33.20;27.83;;;12.20;99.90;;;;;;5066292;28;20040;-66
2022/11/13 12:45:37;;;;;;;37.45;30.77;;;12.30;99.90;;;;;;5066369;28;20048;-66
2022/11/13 12:48:20;;;;;;;30.88;26.45;;;12.20;99.90;;;;;;5062090;28;20040;-66
2022/11/13 12:51:01;;;;;;;31.40;25.65;;;12.20;99.90;;;;;;5062368;28;20097;-66
2022/11/13 12:53:30;;;;;;;32.33;25.95;;;12.20;99.90;;;;;;5071212;28;20048;-65